sensor_id;sensor_type;location;lat;lon;timestamp;P1;durP1;ratioP1;P2;durP2;ratioP2
3189;SDS011;1606;51.946;10.558;2022-07-29T00:01:57;77.17;;;22.87;;
3189;SDS011;1606;51.946;10.558;2022-07-29T00:04:26;77.00;;;25.70;;
3189;SDS011;1606;51.946;10.558;2022-07-29T00:06:54;76.67;;;28.73;;
3189;SDS011;1606;51.946;10.558;2022-07-29T00:09:22;84.30;;;28.70;;
3189;SDS011;1606;51.946;10.558;2022-07-29T00:11:49;76.07;;;19.57;;
3189;SDS011;1606;51.946;10.558;2022-07-29T00:14:17;73.30;;;21.37;;
3189;SDS011;1606;51.946;10.558;2022-07-29T00:16:45;76.20;;;15.10;;
3189;SDS011;1606;51.946;10.558;2022-07-29T00:19:13;71.33;;;15.43;;
3189;SDS011;1606;51.946;10.558;2022-07-29T00:21:42;79.35;;;23.30;;
3189;SDS011;1606;51.946;10.558;2022-07-29T00:24:10;72.87;;;16.20;;
3189;SDS011;1606;51.946;10.558;2022-07-29T00:26:39;69.47;;;16.20;;
3189;SDS011;1606;51.946;10.558;2022-07-29T00:29:06;74.43;;;19.07;;
3189;SDS011;1606;51.946;10.558;2022-07-29T00:31:54;68.13;;;14.70;;
3189;SDS011;1606;51.946;10.558;2022-07-29T00:34:22;71.67;;;16.77;;
3189;SDS011;1606;51.946;10.558;2022-07-29T00:37:09;68.77;;;16.43;;
3189;SDS011;1606;51.946;10.558;2022-07-29T00:39:37;69.60;;;15.67;;
3189;SDS011;1606;51.946;10.558;2022-07-29T00:42:05;74.67;;;18.13;;
3189;SDS011;1606;51.946;10.558;2022-07-29T00:44:35;69.70;;;17.97;;
3189;SDS011;1606;51.946;10.558;2022-07-29T00:47:04;70.00;;;16.40;;
3189;SDS011;1606;51.946;10.558;2022-07-29T00:49:33;73.00;;;18.03;;
3189;SDS011;1606;51.946;10.558;2022-07-29T00:52:01;72.50;;;18.43;;
3189;SDS011;1606;51.946;10.558;2022-07-29T00:54:31;70.30;;;16.53;;
3189;SDS011;1606;51.946;10.558;2022-07-29T00:56:59;74.00;;;17.57;;
3189;SDS011;1606;51.946;10.558;2022-07-29T00:59:27;73.67;;;17.53;;
3189;SDS011;1606;51.946;10.558;2022-07-29T01:02:01;73.90;;;19.50;;
3189;SDS011;1606;51.946;10.558;2022-07-29T01:04:30;72.23;;;17.10;;
3189;SDS011;1606;51.946;10.558;2022-07-29T01:06:59;71.27;;;18.63;;
3189;SDS011;1606;51.946;10.558;2022-07-29T01:09:28;72.00;;;17.60;;
3189;SDS011;1606;51.946;10.558;2022-07-29T01:12:12;68.77;;;15.70;;
3189;SDS011;1606;51.946;10.558;2022-07-29T01:14:43;69.80;;;18.23;;
3189;SDS011;1606;51.946;10.558;2022-07-29T01:17:13;70.27;;;18.40;;
3189;SDS011;1606;51.946;10.558;2022-07-29T01:19:48;88.93;;;47.05;;
3189;SDS011;1606;51.946;10.558;2022-07-29T01:22:25;74.00;;;25.07;;
3189;SDS011;1606;51.946;10.558;2022-07-29T01:25:02;71.40;;;20.13;;
3189;SDS011;1606;51.946;10.558;2022-07-29T01:27:38;75.37;;;24.67;;
3189;SDS011;1606;51.946;10.558;2022-07-29T01:30:16;73.27;;;22.97;;
3189;SDS011;1606;51.946;10.558;2022-07-29T01:32:47;73.17;;;24.70;;
3189;SDS011;1606;51.946;10.558;2022-07-29T01:35:21;78.10;;;26.47;;
3189;SDS011;1606;51.946;10.558;2022-07-29T01:37:54;74.50;;;24.60;;
3189;SDS011;1606;51.946;10.558;2022-07-29T01:40:27;74.67;;;24.17;;
3189;SDS011;1606;51.946;10.558;2022-07-29T01:43:02;81.23;;;23.93;;
3189;SDS011;1606;51.946;10.558;2022-07-29T01:45:38;80.10;;;27.27;;
3189;SDS011;1606;51.946;10.558;2022-07-29T01:48:11;72.87;;;23.27;;
3189;SDS011;1606;51.946;10.558;2022-07-29T01:50:45;70.40;;;18.10;;
3189;SDS011;1606;51.946;10.558;2022-07-29T01:53:17;74.87;;;20.97;;
3189;SDS011;1606;51.946;10.558;2022-07-29T01:55:59;74.43;;;18.90;;
3189;SDS011;1606;51.946;10.558;2022-07-29T01:58:29;76.30;;;22.17;;
3189;SDS011;1606;51.946;10.558;2022-07-29T02:01:00;73.13;;;23.37;;
3189;SDS011;1606;51.946;10.558;2022-07-29T02:03:29;77.97;;;27.80;;
3189;SDS011;1606;51.946;10.558;2022-07-29T02:06:00;77.90;;;31.23;;
3189;SDS011;1606;51.946;10.558;2022-07-29T02:08:30;80.50;;;29.63;;
3189;SDS011;1606;51.946;10.558;2022-07-29T02:11:00;78.10;;;27.17;;
3189;SDS011;1606;51.946;10.558;2022-07-29T02:13:30;75.87;;;23.57;;
3189;SDS011;1606;51.946;10.558;2022-07-29T02:16:06;78.97;;;31.77;;
3189;SDS011;1606;51.946;10.558;2022-07-29T02:18:39;76.70;;;27.37;;
3189;SDS011;1606;51.946;10.558;2022-07-29T02:21:09;80.10;;;27.63;;
3189;SDS011;1606;51.946;10.558;2022-07-29T02:23:41;78.43;;;26.67;;
3189;SDS011;1606;51.946;10.558;2022-07-29T02:26:17;74.30;;;24.00;;
3189;SDS011;1606;51.946;10.558;2022-07-29T02:28:46;76.47;;;27.77;;
3189;SDS011;1606;51.946;10.558;2022-07-29T02:31:17;79.10;;;28.37;;
3189;SDS011;1606;51.946;10.558;2022-07-29T02:33:48;79.37;;;32.77;;
3189;SDS011;1606;51.946;10.558;2022-07-29T02:36:19;80.07;;;31.87;;
3189;SDS011;1606;51.946;10.558;2022-07-29T02:38:49;84.70;;;31.70;;
3189;SDS011;1606;51.946;10.558;2022-07-29T02:41:18;94.90;;;74.00;;
3189;SDS011;1606;51.946;10.558;2022-07-29T02:43:50;81.57;;;35.07;;
3189;SDS011;1606;51.946;10.558;2022-07-29T02:46:25;78.90;;;31.17;;
3189;SDS011;1606;51.946;10.558;2022-07-29T02:48:58;79.47;;;32.37;;
3189;SDS011;1606;51.946;10.558;2022-07-29T02:51:32;82.00;;;32.30;;
3189;SDS011;1606;51.946;10.558;2022-07-29T02:54:10;79.57;;;31.40;;
3189;SDS011;1606;51.946;10.558;2022-07-29T02:56:42;79.70;;;32.70;;
3189;SDS011;1606;51.946;10.558;2022-07-29T02:59:13;84.63;;;37.10;;
3189;SDS011;1606;51.946;10.558;2022-07-29T03:01:45;80.77;;;32.47;;
3189;SDS011;1606;51.946;10.558;2022-07-29T03:04:14;81.67;;;36.83;;
3189;SDS011;1606;51.946;10.558;2022-07-29T03:06:45;83.77;;;36.07;;
3189;SDS011;1606;51.946;10.558;2022-07-29T03:09:14;80.17;;;34.33;;
3189;SDS011;1606;51.946;10.558;2022-07-29T03:11:42;82.93;;;35.27;;
3189;SDS011;1606;51.946;10.558;2022-07-29T03:14:16;79.97;;;32.67;;
3189;SDS011;1606;51.946;10.558;2022-07-29T03:16:48;81.33;;;34.27;;
3189;SDS011;1606;51.946;10.558;2022-07-29T03:19:16;81.77;;;31.47;;
3189;SDS011;1606;51.946;10.558;2022-07-29T03:21:44;84.07;;;37.73;;
3189;SDS011;1606;51.946;10.558;2022-07-29T03:24:23;82.57;;;34.97;;
3189;SDS011;1606;51.946;10.558;2022-07-29T03:26:53;81.20;;;34.47;;
3189;SDS011;1606;51.946;10.558;2022-07-29T03:29:22;84.67;;;34.20;;
3189;SDS011;1606;51.946;10.558;2022-07-29T03:31:59;78.80;;;31.90;;
3189;SDS011;1606;51.946;10.558;2022-07-29T03:34:34;84.63;;;31.10;;
3189;SDS011;1606;51.946;10.558;2022-07-29T03:37:03;80.80;;;32.97;;
3189;SDS011;1606;51.946;10.558;2022-07-29T03:39:33;78.87;;;31.50;;
3189;SDS011;1606;51.946;10.558;2022-07-29T03:42:03;81.27;;;32.20;;
3189;SDS011;1606;51.946;10.558;2022-07-29T03:44:33;82.50;;;33.57;;
3189;SDS011;1606;51.946;10.558;2022-07-29T03:47:04;80.00;;;33.33;;
3189;SDS011;1606;51.946;10.558;2022-07-29T03:49:35;103.85;;;76.47;;
3189;SDS011;1606;51.946;10.558;2022-07-29T03:52:04;90.90;;;39.47;;
3189;SDS011;1606;51.946;10.558;2022-07-29T03:54:32;80.00;;;34.90;;
3189;SDS011;1606;51.946;10.558;2022-07-29T03:57:01;80.30;;;30.60;;
3189;SDS011;1606;51.946;10.558;2022-07-29T03:59:30;80.50;;;29.67;;
3189;SDS011;1606;51.946;10.558;2022-07-29T04:02:01;78.30;;;29.13;;
3189;SDS011;1606;51.946;10.558;2022-07-29T04:04:33;80.70;;;32.17;;
3189;SDS011;1606;51.946;10.558;2022-07-29T04:07:01;79.60;;;32.03;;
3189;SDS011;1606;51.946;10.558;2022-07-29T04:09:30;81.67;;;33.13;;
3189;SDS011;1606;51.946;10.558;2022-07-29T04:11:59;81.60;;;32.27;;
3189;SDS011;1606;51.946;10.558;2022-07-29T04:14:30;82.43;;;28.67;;
3189;SDS011;1606;51.946;10.558;2022-07-29T04:16:58;78.13;;;29.37;;
3189;SDS011;1606;51.946;10.558;2022-07-29T04:19:26;80.23;;;30.77;;
3189;SDS011;1606;51.946;10.558;2022-07-29T04:21:56;77.77;;;27.57;;
3189;SDS011;1606;51.946;10.558;2022-07-29T04:24:24;77.70;;;29.77;;
3189;SDS011;1606;51.946;10.558;2022-07-29T04:26:53;77.23;;;30.90;;
3189;SDS011;1606;51.946;10.558;2022-07-29T04:29:20;78.90;;;31.10;;
3189;SDS011;1606;51.946;10.558;2022-07-29T04:31:48;80.20;;;32.00;;
3189;SDS011;1606;51.946;10.558;2022-07-29T04:34:16;79.60;;;29.60;;
3189;SDS011;1606;51.946;10.558;2022-07-29T04:36:45;79.80;;;32.63;;
3189;SDS011;1606;51.946;10.558;2022-07-29T04:39:14;82.57;;;32.47;;
3189;SDS011;1606;51.946;10.558;2022-07-29T04:41:48;77.50;;;31.70;;
3189;SDS011;1606;51.946;10.558;2022-07-29T04:44:20;81.73;;;32.17;;
3189;SDS011;1606;51.946;10.558;2022-07-29T04:46:54;79.90;;;33.83;;
3189;SDS011;1606;51.946;10.558;2022-07-29T04:49:22;77.87;;;31.93;;
3189;SDS011;1606;51.946;10.558;2022-07-29T04:51:50;82.27;;;32.50;;
3189;SDS011;1606;51.946;10.558;2022-07-29T04:54:19;78.47;;;32.50;;
3189;SDS011;1606;51.946;10.558;2022-07-29T04:56:47;83.00;;;42.15;;
3189;SDS011;1606;51.946;10.558;2022-07-29T04:59:15;77.63;;;32.60;;
3189;SDS011;1606;51.946;10.558;2022-07-29T05:01:43;77.77;;;26.77;;
3189;SDS011;1606;51.946;10.558;2022-07-29T05:04:11;75.70;;;28.00;;
3189;SDS011;1606;51.946;10.558;2022-07-29T05:06:39;76.00;;;28.10;;
3189;SDS011;1606;51.946;10.558;2022-07-29T05:09:07;79.83;;;26.07;;
3189;SDS011;1606;51.946;10.558;2022-07-29T05:11:36;81.00;;;27.30;;
3189;SDS011;1606;51.946;10.558;2022-07-29T05:14:04;79.70;;;25.20;;
3189;SDS011;1606;51.946;10.558;2022-07-29T05:16:32;75.17;;;24.30;;
3189;SDS011;1606;51.946;10.558;2022-07-29T05:19:00;78.33;;;26.90;;
3189;SDS011;1606;51.946;10.558;2022-07-29T05:21:27;77.80;;;27.10;;
3189;SDS011;1606;51.946;10.558;2022-07-29T05:23:55;77.47;;;27.77;;
3189;SDS011;1606;51.946;10.558;2022-07-29T05:26:23;77.37;;;27.40;;
3189;SDS011;1606;51.946;10.558;2022-07-29T05:28:52;78.77;;;27.57;;
3189;SDS011;1606;51.946;10.558;2022-07-29T05:31:21;77.60;;;27.20;;
3189;SDS011;1606;51.946;10.558;2022-07-29T05:33:48;78.70;;;28.70;;
3189;SDS011;1606;51.946;10.558;2022-07-29T05:36:16;76.77;;;24.47;;
3189;SDS011;1606;51.946;10.558;2022-07-29T05:38:44;76.70;;;26.77;;
3189;SDS011;1606;51.946;10.558;2022-07-29T05:41:12;80.97;;;30.77;;
3189;SDS011;1606;51.946;10.558;2022-07-29T05:43:40;82.17;;;32.27;;
3189;SDS011;1606;51.946;10.558;2022-07-29T05:46:09;77.87;;;30.50;;
3189;SDS011;1606;51.946;10.558;2022-07-29T05:48:37;81.67;;;32.60;;
3189;SDS011;1606;51.946;10.558;2022-07-29T05:51:05;96.22;;;38.55;;
3189;SDS011;1606;51.946;10.558;2022-07-29T05:53:32;79.50;;;33.03;;
3189;SDS011;1606;51.946;10.558;2022-07-29T05:56:02;81.50;;;31.67;;
3189;SDS011;1606;51.946;10.558;2022-07-29T05:58:31;81.70;;;34.73;;
3189;SDS011;1606;51.946;10.558;2022-07-29T06:00:59;76.33;;;28.37;;
3189;SDS011;1606;51.946;10.558;2022-07-29T06:03:29;80.10;;;28.40;;
3189;SDS011;1606;51.946;10.558;2022-07-29T06:05:57;98.60;;;46.15;;
3189;SDS011;1606;51.946;10.558;2022-07-29T06:08:25;99.70;;;73.90;;
3189;SDS011;1606;51.946;10.558;2022-07-29T06:10:53;78.37;;;29.20;;
3189;SDS011;1606;51.946;10.558;2022-07-29T06:13:20;78.20;;;28.20;;
3189;SDS011;1606;51.946;10.558;2022-07-29T06:15:48;78.00;;;29.40;;
3189;SDS011;1606;51.946;10.558;2022-07-29T06:18:16;76.00;;;26.90;;
3189;SDS011;1606;51.946;10.558;2022-07-29T06:20:45;78.80;;;25.23;;
3189;SDS011;1606;51.946;10.558;2022-07-29T06:23:13;76.67;;;27.33;;
3189;SDS011;1606;51.946;10.558;2022-07-29T06:25:41;75.10;;;24.03;;
3189;SDS011;1606;51.946;10.558;2022-07-29T06:28:09;74.53;;;26.10;;
3189;SDS011;1606;51.946;10.558;2022-07-29T06:30:37;74.70;;;24.90;;
3189;SDS011;1606;51.946;10.558;2022-07-29T06:33:05;75.10;;;25.07;;
3189;SDS011;1606;51.946;10.558;2022-07-29T06:35:33;73.37;;;21.40;;
3189;SDS011;1606;51.946;10.558;2022-07-29T06:38:09;77.20;;;23.33;;
3189;SDS011;1606;51.946;10.558;2022-07-29T06:40:57;80.50;;;25.07;;
3189;SDS011;1606;51.946;10.558;2022-07-29T06:43:29;75.37;;;26.73;;
3189;SDS011;1606;51.946;10.558;2022-07-29T06:46:00;82.43;;;25.60;;
3189;SDS011;1606;51.946;10.558;2022-07-29T06:48:28;79.43;;;30.53;;
3189;SDS011;1606;51.946;10.558;2022-07-29T06:50:57;76.77;;;26.20;;
3189;SDS011;1606;51.946;10.558;2022-07-29T06:53:27;76.17;;;28.17;;
3189;SDS011;1606;51.946;10.558;2022-07-29T06:55:55;75.67;;;27.00;;
3189;SDS011;1606;51.946;10.558;2022-07-29T06:58:24;73.10;;;21.57;;
3189;SDS011;1606;51.946;10.558;2022-07-29T07:00:53;72.60;;;21.00;;
3189;SDS011;1606;51.946;10.558;2022-07-29T07:03:21;76.90;;;24.87;;
3189;SDS011;1606;51.946;10.558;2022-07-29T07:05:49;74.00;;;23.50;;
3189;SDS011;1606;51.946;10.558;2022-07-29T07:08:18;71.80;;;18.70;;
3189;SDS011;1606;51.946;10.558;2022-07-29T07:10:49;70.57;;;19.80;;
3189;SDS011;1606;51.946;10.558;2022-07-29T07:13:17;74.68;;;24.15;;
3189;SDS011;1606;51.946;10.558;2022-07-29T07:15:46;70.70;;;20.10;;
3189;SDS011;1606;51.946;10.558;2022-07-29T07:18:16;69.90;;;19.40;;
3189;SDS011;1606;51.946;10.558;2022-07-29T07:20:44;67.70;;;17.53;;
3189;SDS011;1606;51.946;10.558;2022-07-29T07:23:12;71.17;;;18.23;;
3189;SDS011;1606;51.946;10.558;2022-07-29T07:25:40;72.67;;;18.10;;
3189;SDS011;1606;51.946;10.558;2022-07-29T07:28:09;75.03;;;19.70;;
3189;SDS011;1606;51.946;10.558;2022-07-29T07:30:37;74.23;;;19.80;;
3189;SDS011;1606;51.946;10.558;2022-07-29T07:33:05;82.77;;;17.50;;
3189;SDS011;1606;51.946;10.558;2022-07-29T07:35:34;69.53;;;16.60;;
3189;SDS011;1606;51.946;10.558;2022-07-29T07:38:02;73.90;;;17.97;;
3189;SDS011;1606;51.946;10.558;2022-07-29T07:40:32;66.83;;;14.37;;
3189;SDS011;1606;51.946;10.558;2022-07-29T07:42:59;68.27;;;13.37;;
3189;SDS011;1606;51.946;10.558;2022-07-29T07:45:29;66.27;;;13.73;;
3189;SDS011;1606;51.946;10.558;2022-07-29T07:47:58;66.37;;;13.40;;
3189;SDS011;1606;51.946;10.558;2022-07-29T07:50:26;68.47;;;13.03;;
3189;SDS011;1606;51.946;10.558;2022-07-29T07:52:55;66.60;;;11.93;;
3189;SDS011;1606;51.946;10.558;2022-07-29T07:55:24;65.40;;;11.10;;
3189;SDS011;1606;51.946;10.558;2022-07-29T07:57:53;64.40;;;10.47;;
3189;SDS011;1606;51.946;10.558;2022-07-29T08:00:21;62.60;;;9.87;;
3189;SDS011;1606;51.946;10.558;2022-07-29T08:02:51;65.47;;;11.43;;
3189;SDS011;1606;51.946;10.558;2022-07-29T08:05:18;63.80;;;11.90;;
3189;SDS011;1606;51.946;10.558;2022-07-29T08:07:46;66.77;;;9.77;;
3189;SDS011;1606;51.946;10.558;2022-07-29T08:10:15;63.40;;;10.17;;
3189;SDS011;1606;51.946;10.558;2022-07-29T08:13:03;61.90;;;10.10;;
3189;SDS011;1606;51.946;10.558;2022-07-29T08:15:32;62.00;;;8.80;;
3189;SDS011;1606;51.946;10.558;2022-07-29T08:18:02;64.27;;;9.30;;
3189;SDS011;1606;51.946;10.558;2022-07-29T08:20:34;66.30;;;8.20;;
3189;SDS011;1606;51.946;10.558;2022-07-29T08:23:05;61.60;;;9.53;;
3189;SDS011;1606;51.946;10.558;2022-07-29T08:25:35;60.57;;;7.83;;
3189;SDS011;1606;51.946;10.558;2022-07-29T08:28:05;61.00;;;7.60;;
3189;SDS011;1606;51.946;10.558;2022-07-29T08:30:33;62.53;;;7.90;;
3189;SDS011;1606;51.946;10.558;2022-07-29T08:33:03;59.00;;;6.87;;
3189;SDS011;1606;51.946;10.558;2022-07-29T08:35:31;59.17;;;7.40;;
3189;SDS011;1606;51.946;10.558;2022-07-29T08:38:01;58.30;;;6.40;;
3189;SDS011;1606;51.946;10.558;2022-07-29T08:40:29;63.40;;;6.50;;
3189;SDS011;1606;51.946;10.558;2022-07-29T08:42:58;55.27;;;7.33;;
3189;SDS011;1606;51.946;10.558;2022-07-29T08:45:26;61.47;;;6.50;;
3189;SDS011;1606;51.946;10.558;2022-07-29T08:47:56;58.10;;;6.90;;
3189;SDS011;1606;51.946;10.558;2022-07-29T08:50:25;56.30;;;6.20;;
3189;SDS011;1606;51.946;10.558;2022-07-29T08:52:53;58.23;;;7.90;;
3189;SDS011;1606;51.946;10.558;2022-07-29T08:55:25;65.97;;;6.30;;
3189;SDS011;1606;51.946;10.558;2022-07-29T08:57:53;57.47;;;6.63;;
3189;SDS011;1606;51.946;10.558;2022-07-29T09:00:24;57.97;;;6.00;;
3189;SDS011;1606;51.946;10.558;2022-07-29T09:02:56;59.30;;;6.30;;
3189;SDS011;1606;51.946;10.558;2022-07-29T09:05:27;54.90;;;5.60;;
3189;SDS011;1606;51.946;10.558;2022-07-29T09:07:56;53.07;;;5.20;;
3189;SDS011;1606;51.946;10.558;2022-07-29T09:10:24;54.40;;;5.47;;
3189;SDS011;1606;51.946;10.558;2022-07-29T09:12:53;53.50;;;6.27;;
3189;SDS011;1606;51.946;10.558;2022-07-29T09:15:22;53.60;;;5.53;;
3189;SDS011;1606;51.946;10.558;2022-07-29T09:17:50;58.87;;;6.13;;
3189;SDS011;1606;51.946;10.558;2022-07-29T09:20:19;55.67;;;5.40;;
3189;SDS011;1606;51.946;10.558;2022-07-29T09:22:50;54.33;;;4.63;;
3189;SDS011;1606;51.946;10.558;2022-07-29T09:25:32;56.00;;;5.10;;
3189;SDS011;1606;51.946;10.558;2022-07-29T09:28:06;55.23;;;5.67;;
3189;SDS011;1606;51.946;10.558;2022-07-29T09:30:35;54.33;;;6.10;;
3189;SDS011;1606;51.946;10.558;2022-07-29T09:33:04;56.23;;;5.60;;
3189;SDS011;1606;51.946;10.558;2022-07-29T09:35:32;55.43;;;5.63;;
3189;SDS011;1606;51.946;10.558;2022-07-29T09:38:10;51.93;;;5.00;;
3189;SDS011;1606;51.946;10.558;2022-07-29T09:40:38;59.05;;;6.10;;
3189;SDS011;1606;51.946;10.558;2022-07-29T09:43:10;54.17;;;5.27;;
3189;SDS011;1606;51.946;10.558;2022-07-29T09:45:40;55.80;;;5.37;;
3189;SDS011;1606;51.946;10.558;2022-07-29T09:48:14;53.07;;;6.00;;
3189;SDS011;1606;51.946;10.558;2022-07-29T09:50:45;60.00;;;6.40;;
3189;SDS011;1606;51.946;10.558;2022-07-29T09:53:30;58.47;;;5.93;;
3189;SDS011;1606;51.946;10.558;2022-07-29T09:56:01;54.57;;;5.83;;
3189;SDS011;1606;51.946;10.558;2022-07-29T09:58:30;52.80;;;5.17;;
3189;SDS011;1606;51.946;10.558;2022-07-29T10:00:59;57.30;;;5.70;;
3189;SDS011;1606;51.946;10.558;2022-07-29T10:03:27;62.90;;;6.43;;
3189;SDS011;1606;51.946;10.558;2022-07-29T10:06:05;55.70;;;5.93;;
3189;SDS011;1606;51.946;10.558;2022-07-29T10:08:35;54.37;;;5.67;;
3189;SDS011;1606;51.946;10.558;2022-07-29T10:11:10;60.03;;;6.03;;
3189;SDS011;1606;51.946;10.558;2022-07-29T10:13:39;54.77;;;5.73;;
3189;SDS011;1606;51.946;10.558;2022-07-29T10:16:08;58.63;;;6.10;;
3189;SDS011;1606;51.946;10.558;2022-07-29T10:18:39;54.37;;;5.80;;
3189;SDS011;1606;51.946;10.558;2022-07-29T10:21:08;57.50;;;5.67;;
3189;SDS011;1606;51.946;10.558;2022-07-29T10:23:49;53.63;;;5.17;;
3189;SDS011;1606;51.946;10.558;2022-07-29T10:26:17;54.27;;;5.70;;
3189;SDS011;1606;51.946;10.558;2022-07-29T10:28:46;55.97;;;5.87;;
3189;SDS011;1606;51.946;10.558;2022-07-29T10:31:15;60.07;;;6.53;;
3189;SDS011;1606;51.946;10.558;2022-07-29T10:33:54;55.13;;;5.57;;
3189;SDS011;1606;51.946;10.558;2022-07-29T10:36:32;55.03;;;5.00;;
3189;SDS011;1606;51.946;10.558;2022-07-29T10:39:14;55.30;;;6.30;;
3189;SDS011;1606;51.946;10.558;2022-07-29T10:41:56;53.10;;;5.27;;
3189;SDS011;1606;51.946;10.558;2022-07-29T10:44:34;58.00;;;6.10;;
3189;SDS011;1606;51.946;10.558;2022-07-29T10:47:05;54.17;;;5.40;;
3189;SDS011;1606;51.946;10.558;2022-07-29T10:49:35;50.97;;;4.73;;
3189;SDS011;1606;51.946;10.558;2022-07-29T10:52:06;51.47;;;5.17;;
3189;SDS011;1606;51.946;10.558;2022-07-29T10:54:40;56.60;;;6.10;;
3189;SDS011;1606;51.946;10.558;2022-07-29T10:57:15;52.20;;;4.97;;
3189;SDS011;1606;51.946;10.558;2022-07-29T11:00:25;54.30;;;5.57;;
3189;SDS011;1606;51.946;10.558;2022-07-29T11:02:54;54.07;;;6.30;;
3189;SDS011;1606;51.946;10.558;2022-07-29T11:05:24;54.00;;;5.63;;
3189;SDS011;1606;51.946;10.558;2022-07-29T11:08:18;53.53;;;7.20;;
3189;SDS011;1606;51.946;10.558;2022-07-29T11:11:30;56.47;;;5.80;;
3189;SDS011;1606;51.946;10.558;2022-07-29T11:14:03;53.10;;;5.80;;
3189;SDS011;1606;51.946;10.558;2022-07-29T11:19:27;53.80;;;5.50;;
3189;SDS011;1606;51.946;10.558;2022-07-29T11:25:14;53.67;;;8.97;;
3189;SDS011;1606;51.946;10.558;2022-07-29T11:27:44;54.33;;;5.90;;
3189;SDS011;1606;51.946;10.558;2022-07-29T11:30:13;53.57;;;6.60;;
3189;SDS011;1606;51.946;10.558;2022-07-29T11:32:42;53.60;;;6.53;;
3189;SDS011;1606;51.946;10.558;2022-07-29T11:35:14;57.60;;;6.10;;
3189;SDS011;1606;51.946;10.558;2022-07-29T11:43:54;57.27;;;10.63;;
3189;SDS011;1606;51.946;10.558;2022-07-29T11:46:43;54.70;;;6.80;;
3189;SDS011;1606;51.946;10.558;2022-07-29T11:49:12;55.03;;;6.93;;
3189;SDS011;1606;51.946;10.558;2022-07-29T11:51:58;55.23;;;7.20;;
3189;SDS011;1606;51.946;10.558;2022-07-29T11:54:29;55.57;;;7.27;;
3189;SDS011;1606;51.946;10.558;2022-07-29T11:57:19;61.42;;;9.80;;
3189;SDS011;1606;51.946;10.558;2022-07-29T12:00:04;57.10;;;8.10;;
3189;SDS011;1606;51.946;10.558;2022-07-29T12:02:38;56.37;;;7.30;;
3189;SDS011;1606;51.946;10.558;2022-07-29T12:05:08;63.73;;;8.80;;
3189;SDS011;1606;51.946;10.558;2022-07-29T12:07:37;56.93;;;7.20;;
3189;SDS011;1606;51.946;10.558;2022-07-29T12:10:12;56.73;;;7.27;;
3189;SDS011;1606;51.946;10.558;2022-07-29T12:12:54;57.00;;;7.47;;
3189;SDS011;1606;51.946;10.558;2022-07-29T12:15:24;54.77;;;7.10;;
3189;SDS011;1606;51.946;10.558;2022-07-29T12:18:12;54.20;;;6.63;;
3189;SDS011;1606;51.946;10.558;2022-07-29T12:20:43;58.07;;;7.60;;
3189;SDS011;1606;51.946;10.558;2022-07-29T12:23:12;56.07;;;7.07;;
3189;SDS011;1606;51.946;10.558;2022-07-29T12:25:42;59.17;;;7.40;;
3189;SDS011;1606;51.946;10.558;2022-07-29T12:28:15;56.87;;;7.60;;
3189;SDS011;1606;51.946;10.558;2022-07-29T12:30:53;55.30;;;6.00;;
3189;SDS011;1606;51.946;10.558;2022-07-29T12:33:21;55.73;;;6.47;;
3189;SDS011;1606;51.946;10.558;2022-07-29T12:35:51;55.10;;;7.10;;
3189;SDS011;1606;51.946;10.558;2022-07-29T12:38:33;54.77;;;6.93;;
3189;SDS011;1606;51.946;10.558;2022-07-29T12:41:02;62.00;;;7.67;;
3189;SDS011;1606;51.946;10.558;2022-07-29T12:43:30;54.40;;;6.37;;
3189;SDS011;1606;51.946;10.558;2022-07-29T12:46:10;54.37;;;6.07;;
3189;SDS011;1606;51.946;10.558;2022-07-29T12:48:40;54.63;;;6.13;;
3189;SDS011;1606;51.946;10.558;2022-07-29T12:51:09;61.83;;;6.53;;
3189;SDS011;1606;51.946;10.558;2022-07-29T12:53:40;52.97;;;5.77;;
3189;SDS011;1606;51.946;10.558;2022-07-29T12:56:14;59.97;;;7.20;;
3189;SDS011;1606;51.946;10.558;2022-07-29T12:59:10;59.13;;;6.70;;
3189;SDS011;1606;51.946;10.558;2022-07-29T13:01:41;56.57;;;6.50;;
3189;SDS011;1606;51.946;10.558;2022-07-29T13:04:09;52.90;;;5.90;;
3189;SDS011;1606;51.946;10.558;2022-07-29T13:06:38;55.53;;;7.00;;
3189;SDS011;1606;51.946;10.558;2022-07-29T13:09:16;52.77;;;6.00;;
3189;SDS011;1606;51.946;10.558;2022-07-29T13:11:46;53.53;;;6.30;;
3189;SDS011;1606;51.946;10.558;2022-07-29T13:14:29;54.53;;;6.40;;
3189;SDS011;1606;51.946;10.558;2022-07-29T13:17:04;52.07;;;6.10;;
3189;SDS011;1606;51.946;10.558;2022-07-29T13:19:34;54.10;;;6.27;;
3189;SDS011;1606;51.946;10.558;2022-07-29T13:22:04;54.93;;;7.03;;
3189;SDS011;1606;51.946;10.558;2022-07-29T13:24:32;52.73;;;7.17;;
3189;SDS011;1606;51.946;10.558;2022-07-29T13:27:00;53.70;;;6.80;;
3189;SDS011;1606;51.946;10.558;2022-07-29T13:29:31;54.20;;;7.20;;
3189;SDS011;1606;51.946;10.558;2022-07-29T13:31:59;54.23;;;6.40;;
3189;SDS011;1606;51.946;10.558;2022-07-29T13:34:28;52.53;;;7.17;;
3189;SDS011;1606;51.946;10.558;2022-07-29T13:36:57;53.43;;;6.90;;
3189;SDS011;1606;51.946;10.558;2022-07-29T13:39:24;51.63;;;6.53;;
3189;SDS011;1606;51.946;10.558;2022-07-29T13:41:52;52.77;;;6.57;;
3189;SDS011;1606;51.946;10.558;2022-07-29T13:44:22;53.63;;;6.90;;
3189;SDS011;1606;51.946;10.558;2022-07-29T13:46:50;49.53;;;6.03;;
3189;SDS011;1606;51.946;10.558;2022-07-29T13:49:18;49.50;;;7.33;;
3189;SDS011;1606;51.946;10.558;2022-07-29T13:51:48;52.93;;;7.50;;
3189;SDS011;1606;51.946;10.558;2022-07-29T13:54:16;54.50;;;6.73;;
3189;SDS011;1606;51.946;10.558;2022-07-29T13:56:44;59.10;;;7.43;;
3189;SDS011;1606;51.946;10.558;2022-07-29T13:59:12;53.00;;;6.53;;
3189;SDS011;1606;51.946;10.558;2022-07-29T14:01:40;50.67;;;6.50;;
3189;SDS011;1606;51.946;10.558;2022-07-29T14:04:10;51.07;;;7.27;;
3189;SDS011;1606;51.946;10.558;2022-07-29T14:06:39;51.97;;;6.40;;
3189;SDS011;1606;51.946;10.558;2022-07-29T14:09:08;54.80;;;5.90;;
3189;SDS011;1606;51.946;10.558;2022-07-29T14:11:36;55.80;;;7.00;;
3189;SDS011;1606;51.946;10.558;2022-07-29T14:14:04;51.60;;;6.60;;
3189;SDS011;1606;51.946;10.558;2022-07-29T14:16:32;49.97;;;6.43;;
3189;SDS011;1606;51.946;10.558;2022-07-29T14:19:07;54.60;;;7.57;;
3189;SDS011;1606;51.946;10.558;2022-07-29T14:21:35;52.80;;;6.90;;
3189;SDS011;1606;51.946;10.558;2022-07-29T14:24:08;52.77;;;6.53;;
3189;SDS011;1606;51.946;10.558;2022-07-29T14:26:47;53.73;;;7.03;;
3189;SDS011;1606;51.946;10.558;2022-07-29T14:29:15;54.50;;;6.80;;
3189;SDS011;1606;51.946;10.558;2022-07-29T14:31:42;53.67;;;7.20;;
3189;SDS011;1606;51.946;10.558;2022-07-29T14:34:10;54.27;;;6.83;;
3189;SDS011;1606;51.946;10.558;2022-07-29T14:36:38;52.73;;;6.77;;
3189;SDS011;1606;51.946;10.558;2022-07-29T14:39:08;55.28;;;7.30;;
3189;SDS011;1606;51.946;10.558;2022-07-29T14:41:35;50.30;;;6.50;;
3189;SDS011;1606;51.946;10.558;2022-07-29T14:44:04;53.93;;;6.73;;
3189;SDS011;1606;51.946;10.558;2022-07-29T14:46:32;53.60;;;6.97;;
3189;SDS011;1606;51.946;10.558;2022-07-29T14:49:00;52.17;;;6.30;;
3189;SDS011;1606;51.946;10.558;2022-07-29T14:51:28;54.23;;;6.60;;
3189;SDS011;1606;51.946;10.558;2022-07-29T14:53:57;54.30;;;6.30;;
3189;SDS011;1606;51.946;10.558;2022-07-29T14:56:27;52.63;;;6.27;;
3189;SDS011;1606;51.946;10.558;2022-07-29T14:59:12;53.70;;;6.10;;
3189;SDS011;1606;51.946;10.558;2022-07-29T15:01:40;55.07;;;7.00;;
3189;SDS011;1606;51.946;10.558;2022-07-29T15:04:08;53.57;;;6.03;;
3189;SDS011;1606;51.946;10.558;2022-07-29T15:06:36;54.10;;;6.20;;
3189;SDS011;1606;51.946;10.558;2022-07-29T15:09:04;50.80;;;5.70;;
3189;SDS011;1606;51.946;10.558;2022-07-29T15:11:33;50.87;;;5.90;;
3189;SDS011;1606;51.946;10.558;2022-07-29T15:14:04;60.33;;;6.47;;
3189;SDS011;1606;51.946;10.558;2022-07-29T15:16:32;55.42;;;6.90;;